Time;durP1;ratioP1;P1;durP2;ratioP2;P2;SDS_P1;SDS_P2;PMS_P1;PMS_P2;Temp;Humidity;BMP_temperature;BMP_pressure;BME280_temperature;BME280_humidity;BME280_pressure;Samples;Min_cycle;Max_cycle;Signal;HPM_P1;HPM_P2
2022/01/22 00:01:58;;;;;;;0.00;0.00;;;;;;;-0.24;51.83;99337.34;5103053;28;20119;-76
2022/01/22 00:04:23;;;;;;;0.00;0.00;;;;;;;-0.28;51.26;99343.97;5104559;28;20039;-77
2022/01/22 00:06:51;;;;;;;0.00;0.00;;;;;;;-0.40;51.39;99334.03;5110668;28;20035;-76
2022/01/22 00:09:17;;;;;;;0.00;0.00;;;;;;;-0.30;52.11;99346.81;5094231;28;20032;-77
2022/01/22 00:11:51;;;;;;;0.00;0.00;;;;;;;-0.31;52.03;99355.69;5097043;28;20019;-75
2022/01/22 00:14:23;;;;;;;0.00;0.00;;;;;;;-0.29;52.04;99347.59;5101592;28;20062;-76
2022/01/22 00:16:53;;;;;;;0.00;0.00;;;;;;;-0.38;52.21;99345.19;5092701;28;20125;-75
2022/01/22 00:19:19;;;;;;;0.00;0.00;;;;;;;-0.40;52.32;99335.88;5100117;28;20039;-80
2022/01/22 00:21:45;;;;;;;0.00;0.00;;;;;;;-0.40;52.40;99331.41;5110927;28;20027;-77
2022/01/22 00:24:12;;;;;;;0.00;0.00;;;;;;;-0.45;52.48;99315.44;5106982;28;20422;-77
2022/01/22 00:26:38;;;;;;;0.00;0.00;;;;;;;-0.46;52.38;99308.56;5108284;28;20036;-79
2022/01/22 00:29:03;;;;;;;0.00;0.00;;;;;;;-0.45;52.03;99325.94;5100958;27;20034;-77
2022/01/22 00:31:29;;;;;;;0.00;0.00;;;;;;;-0.42;52.76;99330.00;5132124;27;20038;-78
2022/01/22 00:33:54;;;;;;;0.00;0.00;;;;;;;-0.42;52.01;99332.63;5108642;27;20085;-81
2022/01/22 00:36:20;;;;;;;0.00;0.00;;;;;;;-0.38;51.31;99333.84;5091198;28;20501;-76
2022/01/22 00:38:45;;;;;;;0.00;0.00;;;;;;;-0.46;51.36;99324.31;5090845;28;20550;-77
2022/01/22 00:41:11;;;;;;;0.00;0.00;;;;;;;-0.45;51.23;99330.38;5090750;28;20044;-76
2022/01/22 00:43:37;;;;;;;0.00;0.00;;;;;;;-0.45;51.56;99330.38;5099144;28;20044;-79
2022/01/22 00:46:03;;;;;;;0.00;0.00;;;;;;;-0.47;51.20;99332.41;5095202;28;20038;-83
2022/01/22 00:48:28;;;;;;;0.00;0.00;;;;;;;-0.49;51.45;99329.94;5110111;28;20123;-78
2022/01/22 00:50:56;;;;;;;0.00;0.00;;;;;;;-0.53;51.19;99334.00;5098497;28;20059;-81
2022/01/22 00:53:22;;;;;;;0.00;0.00;;;;;;;-0.56;51.49;99337.81;5094430;28;20110;-78
2022/01/22 00:55:48;;;;;;;0.20;0.20;;;;;;;-0.58;51.41;99331.94;5108984;28;20028;-78
2022/01/22 00:58:13;;;;;;;0.00;0.00;;;;;;;-0.58;51.24;99334.56;5110760;28;20088;-78
2022/01/22 01:00:39;;;;;;;0.00;0.00;;;;;;;-0.60;51.56;99325.28;5111075;28;20051;-78
2022/01/22 01:03:04;;;;;;;0.00;0.00;;;;;;;-0.64;50.94;99319.59;5094700;28;20400;-76
2022/01/22 01:05:30;;;;;;;0.00;0.00;;;;;;;-0.66;51.24;99308.47;5101422;28;20027;-79
2022/01/22 01:07:55;;;;;;;0.00;0.00;;;;;;;-0.66;51.02;99318.97;5098200;28;20028;-76
2022/01/22 01:10:21;;;;;;;0.00;0.00;;;;;;;-0.66;51.10;99321.59;5102241;28;20054;-76
2022/01/22 01:12:49;;;;;;;0.00;0.00;;;;;;;-0.83;50.91;99305.34;5093781;28;20050;-76
2022/01/22 01:15:34;;;;;;;0.00;0.00;;;;;;;-0.79;51.48;99306.59;5098432;28;20024;-75
2022/01/22 01:34:15;;;;;;;0.00;0.00;;;;;;;-0.92;52.18;99283.72;5098228;28;20517;-80
2022/01/22 01:36:42;;;;;;;0.05;0.05;;;;;;;-0.98;51.04;99272.19;5094818;28;20024;-75
2022/01/22 01:39:11;;;;;;;0.00;0.00;;;;;;;-1.09;51.14;99264.06;5110156;28;20118;-74
2022/01/22 01:41:53;;;;;;;0.00;0.00;;;;;;;-1.01;51.44;99287.53;5111567;28;20045;-76
2022/01/22 01:44:20;;;;;;;0.00;0.00;;;;;;;-1.06;51.57;99285.47;5103382;28;20138;-76
2022/01/22 01:46:52;;;;;;;0.00;0.00;;;;;;;-1.09;51.91;99274.53;5103443;28;20194;-74
2022/01/22 01:49:18;;;;;;;0.00;0.00;;;;;;;-1.14;51.63;99270.66;5121425;27;20034;-77
2022/01/22 01:51:46;;;;;;;0.00;0.00;;;;;;;-1.07;51.27;99270.72;5107186;28;20503;-76
2022/01/22 01:54:31;;;;;;;0.00;0.00;;;;;;;-1.14;51.92;99277.75;5095096;28;20132;-76
2022/01/22 01:59:45;;;;;;;0.00;0.00;;;;;;;-1.29;51.52;99270.78;5110959;28;20035;-75
2022/01/22 02:02:11;;;;;;;0.00;0.00;;;;;;;-1.31;51.02;99264.94;5093779;28;21844;-73
2022/01/22 02:04:37;;;;;;;0.00;0.00;;;;;;;-1.21;51.13;99287.41;5099792;28;20496;-73
2022/01/22 02:07:06;;;;;;;0.00;0.00;;;;;;;-1.30;51.31;99276.25;5095987;28;20114;-74
2022/01/22 02:09:33;;;;;;;0.00;0.00;;;;;;;-1.27;50.98;99285.53;5091476;28;20036;-74
2022/01/22 02:12:08;;;;;;;0.00;0.00;;;;;;;-1.40;50.68;99273.13;5111094;28;20035;-76
2022/01/22 02:25:26;;;;;;;0.00;0.00;;;;;;;-1.37;51.30;99268.31;5114518;28;20468;-78
2022/01/22 02:27:52;;;;;;;0.00;0.00;;;;;;;-1.43;51.19;99265.66;5113497;28;20051;-76
2022/01/22 02:30:21;;;;;;;0.00;0.00;;;;;;;-1.43;51.97;99258.59;5096619;28;20036;-79
2022/01/22 02:35:34;;;;;;;0.00;0.00;;;;;;;-1.46;51.88;99259.78;5106276;28;20027;-78
2022/01/22 02:38:10;;;;;;;0.00;0.00;;;;;;;-1.56;52.09;99253.25;5105818;28;20038;-77
2022/01/22 02:40:43;;;;;;;0.00;0.00;;;;;;;-1.56;52.69;99246.22;5107075;28;20035;-74
2022/01/22 02:43:10;;;;;;;0.00;0.00;;;;;;;-1.54;52.79;99253.88;5092932;28;20052;-75
2022/01/22 02:45:36;;;;;;;0.00;0.00;;;;;;;-1.51;52.91;99267.44;5097180;28;20028;-74
2022/01/22 02:48:01;;;;;;;0.00;0.00;;;;;;;-1.55;52.94;99266.22;5108621;28;20042;-74
2022/01/22 02:50:27;;;;;;;0.00;0.00;;;;;;;-1.61;52.71;99257.28;5104229;28;20046;-76
2022/01/22 02:52:52;;;;;;;0.00;0.00;;;;;;;-1.59;52.77;99267.56;5096818;28;20421;-77
2022/01/22 02:55:18;;;;;;;0.00;0.00;;;;;;;-1.62;52.54;99268.75;5101564;28;20038;-78
2022/01/22 02:57:45;;;;;;;0.43;0.43;;;;;;;-1.61;53.09;99259.91;5109341;28;20058;-78
2022/01/22 03:00:16;;;;;;;0.00;0.00;;;;;;;-1.65;52.93;99252.59;5099292;28;20028;-77
2022/01/22 03:02:42;;;;;;;0.00;0.00;;;;;;;-1.63;53.45;99261.09;5106472;28;20046;-79
2022/01/22 03:05:08;;;;;;;0.00;0.00;;;;;;;-1.63;53.22;99258.47;5103258;28;20571;-78
2022/01/22 03:07:35;;;;;;;0.00;0.00;;;;;;;-1.63;52.95;99261.09;5093689;28;20040;-80
2022/01/22 03:10:03;;;;;;;0.00;0.00;;;;;;;-1.61;52.46;99257.28;5104946;28;20050;-77
2022/01/22 03:27:50;;;;;;;0.00;0.00;;;;;;;-1.77;52.91;99232.16;5093233;28;20518;-78
2022/01/22 03:30:16;;;;;;;0.00;0.00;;;;;;;-1.77;52.41;99236.56;5092095;28;20055;-77
2022/01/22 03:32:45;;;;;;;0.00;0.00;;;;;;;-1.83;52.30;99221.59;5092971;28;20089;-78
2022/01/22 03:35:23;;;;;;;0.00;0.00;;;;;;;-1.81;52.46;99214.38;5093120;28;20028;-78
2022/01/22 03:37:51;;;;;;;0.00;0.00;;;;;;;-1.84;52.27;99212.94;5098606;28;20047;-77
2022/01/22 03:40:20;;;;;;;0.00;0.00;;;;;;;-1.81;52.66;99209.94;5101770;28;20040;-78
2022/01/22 03:42:47;;;;;;;0.00;0.00;;;;;;;-1.83;52.24;99213.75;5092086;28;20025;-77
2022/01/22 03:45:12;;;;;;;0.00;0.00;;;;;;;-1.85;51.96;99208.69;5091865;28;20487;-77
2022/01/22 03:47:38;;;;;;;0.00;0.00;;;;;;;-1.87;51.60;99215.94;5101158;28;20035;-77
2022/01/22 03:50:06;;;;;;;0.00;0.00;;;;;;;-1.88;52.08;99213.50;5098112;28;20055;-78
2022/01/22 03:52:31;;;;;;;0.00;0.00;;;;;;;-1.92;52.18;99199.97;5094970;28;20044;-77
2022/01/22 03:54:57;;;;;;;0.00;0.00;;;;;;;-1.87;51.81;99202.81;5112068;28;20089;-78
2022/01/22 03:57:23;;;;;;;0.00;0.00;;;;;;;-1.91;52.01;99201.59;5107020;28;20043;-77
2022/01/22 03:59:51;;;;;;;0.00;0.00;;;;;;;-1.89;51.64;99204.03;5091770;28;20035;-77
2022/01/22 04:02:53;;;;;;;0.00;0.00;;;;;;;-1.87;51.64;99194.16;5098338;28;20027;-76
2022/01/22 04:05:05;;;;;;;0.00;0.00;;;;;;;-1.89;51.29;99194.38;5109836;28;20035;-75
2022/01/22 04:10:18;;;;;;;0.00;0.00;;;;;;;-1.90;51.38;99187.50;5109007;28;20088;-75
2022/01/22 04:12:50;;;;;;;0.53;0.53;;;;;;;-1.98;51.45;99185.00;5095239;28;20088;-75
2022/01/22 04:15:19;;;;;;;0.00;0.00;;;;;;;-1.95;51.14;99177.56;5092559;28;20529;-74
2022/01/22 04:26:18;;;;;;;0.00;0.00;;;;;;;-1.83;49.57;99190.16;5112730;28;20092;-73
2022/01/22 04:28:43;;;;;;;0.00;0.00;;;;;;;-1.80;49.51;99182.72;5112893;28;20487;-74
2022/01/22 04:31:09;;;;;;;0.87;0.87;;;;;;;-1.68;49.61;99198.72;5112529;28;20070;-75
2022/01/22 04:33:34;;;;;;;0.00;0.00;;;;;;;-1.70;49.84;99192.06;5101169;28;20490;-75
2022/01/22 04:36:00;;;;;;;0.00;0.00;;;;;;;-1.67;49.31;99195.09;5102458;28;20502;-76
2022/01/22 04:38:25;;;;;;;0.00;0.00;;;;;;;-1.73;50.05;99172.28;5090788;28;20035;-76
2022/01/22 04:40:51;;;;;;;0.00;0.00;;;;;;;-1.62;50.23;99192.72;5108607;28;20058;-76
2022/01/22 04:43:16;;;;;;;0.00;0.00;;;;;;;-1.66;49.74;99191.50;5111022;28;20031;-74
2022/01/22 04:48:25;;;;;;;0.00;0.00;;;;;;;-1.62;49.95;99181.44;5104717;28;20028;-74
2022/01/22 04:56:19;;;;;;;0.00;0.00;;;;;;;-1.67;50.35;99184.63;5096979;28;20042;-70
2022/01/22 04:58:44;;;;;;;0.00;0.00;;;;;;;-1.64;49.74;99186.84;5101857;28;20410;-72
2022/01/22 05:01:10;;;;;;;0.00;0.00;;;;;;;-1.73;50.10;99187.19;5096636;28;20080;-73
2022/01/22 05:03:35;;;;;;;0.20;0.20;;;;;;;-1.71;50.09;99178.16;5098489;28;20031;-74
2022/01/22 05:06:00;;;;;;;0.00;0.00;;;;;;;-1.66;49.92;99201.16;5105029;28;20060;-73
2022/01/22 05:08:26;;;;;;;0.40;0.40;;;;;;;-1.68;49.85;99203.19;5092575;28;20040;-71
2022/01/22 05:10:51;;;;;;;0.00;0.00;;;;;;;-1.65;50.47;99208.03;5105296;28;20095;-72
2022/01/22 05:13:17;;;;;;;0.00;0.00;;;;;;;-1.64;50.30;99213.06;5097059;28;20179;-73
2022/01/22 05:15:42;;;;;;;0.00;0.00;;;;;;;-1.65;49.77;99200.97;5109780;28;20039;-74
2022/01/22 05:18:08;;;;;;;0.13;0.13;;;;;;;-1.67;49.81;99202.16;5103498;28;20028;-72
2022/01/22 05:20:43;;;;;;;0.00;0.00;;;;;;;-1.71;50.12;99196.50;5091199;28;20024;-75
2022/01/22 05:23:15;;;;;;;0.00;0.00;;;;;;;-1.61;49.87;99215.31;5095346;28;20030;-74
2022/01/22 05:25:46;;;;;;;0.00;0.00;;;;;;;-1.54;49.39;99217.97;5103271;28;20034;-73
2022/01/22 05:38:22;;;;;;;0.00;0.00;;;;;;;-1.50;49.41;99206.09;5092648;28;20039;-75
2022/01/22 05:40:48;;;;;;;0.00;0.00;;;;;;;-1.45;48.99;99210.78;5102298;28;20028;-76
2022/01/22 05:43:13;;;;;;;0.00;0.00;;;;;;;-1.40;49.48;99215.41;5090833;28;20479;-73
2022/01/22 05:45:39;;;;;;;0.00;0.00;;;;;;;-1.33;49.36;99218.91;5105014;28;20076;-75
2022/01/22 05:48:04;;;;;;;0.00;0.00;;;;;;;-1.31;48.84;99225.59;5110238;28;20035;-72
2022/01/22 05:50:44;;;;;;;0.00;0.00;;;;;;;-1.34;49.34;99209.44;5094982;28;20111;-74
2022/01/22 05:53:43;;;;;;;0.00;0.00;;;;;;;-1.18;49.13;99224.84;5096654;28;20463;-73
2022/01/22 06:01:10;;;;;;;0.00;0.00;;;;;;;-1.02;48.96;99212.41;5099208;28;20035;-75
2022/01/22 06:03:36;;;;;;;0.00;0.00;;;;;;;-0.95;48.87;99207.16;5106398;28;20050;-74
2022/01/22 06:06:01;;;;;;;0.00;0.00;;;;;;;-0.85;48.54;99221.53;5120652;27;20036;-78
2022/01/22 06:08:33;;;;;;;0.00;0.00;;;;;;;-0.69;48.39;99194.09;5118950;28;20023;-77
2022/01/22 06:11:07;;;;;;;0.00;0.00;;;;;;;-0.54;47.92;99216.78;5113616;27;20589;-74
2022/01/22 06:13:43;;;;;;;0.00;0.00;;;;;;;-0.53;48.15;99218.41;5091006;28;20626;-75
2022/01/22 06:16:10;;;;;;;0.00;0.00;;;;;;;-0.44;47.83;99217.22;5090299;28;20035;-77
2022/01/22 06:18:35;;;;;;;0.00;0.00;;;;;;;-0.37;47.35;99219.84;5098613;28;20035;-75
2022/01/22 06:21:01;;;;;;;0.00;0.00;;;;;;;-0.36;47.44;99195.19;5107020;28;20051;-75
2022/01/22 06:23:26;;;;;;;0.00;0.00;;;;;;;-0.27;46.70;99196.63;5090051;28;20028;-73
2022/01/22 06:25:52;;;;;;;0.00;0.00;;;;;;;-0.12;46.35;99200.84;5108397;28;20034;-74
2022/01/22 06:28:17;;;;;;;0.00;0.00;;;;;;;-0.08;46.33;99199.44;5103755;28;20471;-74
2022/01/22 06:30:44;;;;;;;0.00;0.00;;;;;;;-0.10;45.99;99183.06;5109032;28;20036;-75
2022/01/22 06:33:09;;;;;;;0.00;0.00;;;;;;;0.06;46.22;99200.25;5107980;28;20069;-77
2022/01/22 06:35:35;;;;;;;0.05;0.05;;;;;;;0.13;46.05;99196.59;5102896;28;20047;-74
2022/01/22 06:38:02;;;;;;;0.00;0.00;;;;;;;0.22;46.44;99189.31;5103234;28;20047;-75
2022/01/22 06:42:53;;;;;;;0.22;0.22;;;;;;;0.32;45.94;99186.25;5109390;28;20107;-74
2022/01/22 06:45:19;;;;;;;0.00;0.00;;;;;;;0.32;45.34;99170.47;5100615;28;20032;-73
2022/01/22 06:47:44;;;;;;;0.00;0.00;;;;;;;0.42;45.27;99181.38;5098093;28;20031;-73
2022/01/22 06:50:10;;;;;;;0.00;0.00;;;;;;;0.45;45.65;99177.53;5117360;28;20054;-73
2022/01/22 06:52:37;;;;;;;0.00;0.00;;;;;;;0.52;45.19;99174.88;5114177;27;20499;-76
2022/01/22 06:55:03;;;;;;;0.00;0.00;;;;;;;0.58;45.53;99182.75;5111353;28;20509;-73
2022/01/22 06:57:28;;;;;;;0.10;0.10;;;;;;;0.55;44.99;99156.03;5107320;28;20036;-74
2022/01/22 06:59:54;;;;;;;0.00;0.00;;;;;;;0.60;45.11;99143.88;5088499;28;20032;-74
2022/01/22 07:02:20;;;;;;;0.00;0.00;;;;;;;0.69;45.07;99148.91;5091492;28;20380;-74
2022/01/22 07:04:46;;;;;;;0.00;0.00;;;;;;;0.74;45.17;99149.88;5109819;28;20032;-74
2022/01/22 07:07:12;;;;;;;0.00;0.00;;;;;;;0.89;44.88;99168.06;5111434;28;20085;-74
2022/01/22 07:09:38;;;;;;;0.00;0.00;;;;;;;0.92;44.65;99161.56;5093529;28;20151;-73
2022/01/22 07:12:08;;;;;;;0.00;0.00;;;;;;;1.05;44.56;99156.25;5094036;28;20067;-71
2022/01/22 07:14:33;;;;;;;0.00;0.00;;;;;;;1.16;44.30;99157.41;5101577;28;20452;-72
2022/01/22 07:16:59;;;;;;;0.00;0.00;;;;;;;1.09;44.54;99132.94;5099525;28;20024;-75
2022/01/22 07:19:24;;;;;;;0.00;0.00;;;;;;;1.25;44.59;99148.22;5099935;27;20087;-74
2022/01/22 07:22:02;;;;;;;0.00;0.00;;;;;;;1.18;43.19;99155.34;5133447;27;20121;-73
2022/01/22 07:24:33;;;;;;;0.00;0.00;;;;;;;1.22;43.50;99139.94;5120758;27;20027;-74
2022/01/22 07:26:59;;;;;;;0.00;0.00;;;;;;;1.21;44.04;99143.56;5112491;28;20036;-75
2022/01/22 07:29:25;;;;;;;0.00;0.00;;;;;;;1.23;43.24;99144.19;5110202;28;20486;-77
2022/01/22 07:31:52;;;;;;;0.00;0.00;;;;;;;1.26;43.88;99139.31;5112747;28;20470;-76
2022/01/22 07:34:17;;;;;;;0.00;0.00;;;;;;;1.33;43.58;99134.00;5103948;27;20032;-74
2022/01/22 07:36:43;;;;;;;0.00;0.00;;;;;;;1.31;43.63;99122.84;5101013;28;20462;-75
2022/01/22 07:39:08;;;;;;;0.00;0.00;;;;;;;1.42;43.04;99118.72;5114759;27;20037;-76
2022/01/22 07:41:34;;;;;;;0.00;0.00;;;;;;;1.49;43.00;99123.94;5112185;28;20494;-77
2022/01/22 07:43:59;;;;;;;0.00;0.00;;;;;;;1.54;44.20;99124.13;5112359;28;20386;-76
2022/01/22 07:46:25;;;;;;;0.00;0.00;;;;;;;1.59;43.27;99127.72;5113627;27;20144;-75
2022/01/22 07:48:50;;;;;;;0.00;0.00;;;;;;;1.60;43.77;99125.91;5114682;27;20482;-74
2022/01/22 07:51:17;;;;;;;0.00;0.00;;;;;;;1.68;43.23;99119.53;5132719;27;20023;-71
2022/01/22 07:53:44;;;;;;;0.00;0.00;;;;;;;1.74;43.10;99127.38;5121924;27;20058;-75
2022/01/22 07:56:11;;;;;;;0.00;0.00;;;;;;;1.78;43.21;99114.56;5113592;28;20106;-73
2022/01/22 07:58:36;;;;;;;0.20;0.20;;;;;;;1.86;43.15;99110.88;5113298;28;20092;-72
2022/01/22 08:01:02;;;;;;;0.28;0.28;;;;;;;1.96;43.02;99116.44;5113782;28;20039;-71
2022/01/22 08:03:29;;;;;;;0.00;0.00;;;;;;;2.05;42.26;99114.31;5112769;28;20479;-71
2022/01/22 08:05:54;;;;;;;0.00;0.00;;;;;;;2.12;42.49;99123.00;5111808;28;20077;-72
2022/01/22 08:08:20;;;;;;;0.00;0.00;;;;;;;2.14;42.93;99117.50;5111881;28;20036;-71
2022/01/22 08:10:45;;;;;;;0.00;0.00;;;;;;;2.24;42.30;99128.34;5119290;27;20032;-71
2022/01/22 08:13:11;;;;;;;0.00;0.00;;;;;;;2.20;41.89;99127.97;5103089;28;20038;-71
2022/01/22 08:15:37;;;;;;;0.00;0.00;;;;;;;2.17;42.21;99124.97;5102678;28;20486;-72
2022/01/22 08:18:04;;;;;;;0.00;0.00;;;;;;;2.13;41.99;99111.41;5105907;28;20028;-72
2022/01/22 08:20:29;;;;;;;0.00;0.00;;;;;;;2.23;41.77;99117.00;5121882;27;20031;-73
2022/01/22 08:22:55;;;;;;;0.10;0.10;;;;;;;2.16;40.65;99107.53;5109618;27;20028;-72
2022/01/22 08:25:21;;;;;;;0.00;0.00;;;;;;;2.13;40.69;99098.22;5092435;28;20095;-75
2022/01/22 08:30:32;;;;;;;0.08;0.05;;;;;;;2.12;40.42;99091.31;5112753;28;20402;-73
2022/01/22 08:35:54;;;;;;;0.00;0.00;;;;;;;2.14;40.54;99094.56;5093523;28;20039;-72
2022/01/22 08:38:30;;;;;;;0.00;0.00;;;;;;;2.01;39.97;99084.94;5092493;28;20211;-72
2022/01/22 08:40:56;;;;;;;0.00;0.00;;;;;;;2.16;40.39;99102.25;5109685;27;20038;-72
2022/01/22 08:43:23;;;;;;;0.00;0.00;;;;;;;2.22;41.22;99102.19;5107293;28;20417;-71
2022/01/22 08:45:49;;;;;;;0.00;0.00;;;;;;;2.23;41.06;99095.06;5103172;28;20027;-71
2022/01/22 08:48:19;;;;;;;0.00;0.00;;;;;;;2.17;40.51;99085.41;5112587;28;20035;-72
2022/01/22 08:50:45;;;;;;;0.00;0.00;;;;;;;2.22;40.58;99098.72;5112451;28;20034;-71
2022/01/22 08:53:11;;;;;;;0.10;0.10;;;;;;;2.21;41.13;99090.03;5112475;28;20051;-72
2022/01/22 08:55:36;;;;;;;0.00;0.00;;;;;;;2.22;40.47;99096.09;5110961;28;20075;-71
2022/01/22 08:58:02;;;;;;;0.00;0.00;;;;;;;2.24;41.13;99094.84;5112143;28;20055;-73
2022/01/22 09:00:28;;;;;;;0.00;0.00;;;;;;;2.21;41.61;99065.44;5112143;28;20024;-73
2022/01/22 09:02:53;;;;;;;0.10;0.10;;;;;;;2.26;41.15;99078.00;5112011;28;20024;-73
2022/01/22 09:05:20;;;;;;;0.10;0.10;;;;;;;2.30;40.96;99085.25;5110920;28;20470;-71
2022/01/22 09:07:46;;;;;;;0.00;0.00;;;;;;;2.26;41.32;99086.72;5111936;28;20027;-74
2022/01/22 09:10:13;;;;;;;0.00;0.00;;;;;;;2.27;41.32;99076.97;5110767;28;20028;-74
2022/01/22 09:12:38;;;;;;;0.00;0.00;;;;;;;2.22;41.21;99073.16;5092478;28;20054;-73
2022/01/22 09:15:04;;;;;;;0.00;0.00;;;;;;;2.18;41.35;99052.72;5090354;28;20115;-71
2022/01/22 09:17:30;;;;;;;0.00;0.00;;;;;;;2.19;40.87;99062.25;5091550;28;20056;-83
2022/01/22 09:19:58;;;;;;;0.00;0.00;;;;;;;2.14;40.96;99064.75;5110946;27;20106;-72
2022/01/22 09:22:25;;;;;;;0.00;0.00;;;;;;;2.11;41.47;99057.25;5111710;28;20046;-72
2022/01/22 09:24:51;;;;;;;0.00;0.00;;;;;;;2.03;42.05;99045.97;5111267;28;20031;-73
2022/01/22 09:27:17;;;;;;;0.00;0.00;;;;;;;2.13;42.87;99055.22;5112168;28;20114;-72
2022/01/22 09:29:44;;;;;;;0.85;0.40;;;;;;;2.15;42.52;99037.31;5111649;28;20075;-72
2022/01/22 09:32:09;;;;;;;0.00;0.00;;;;;;;2.02;42.60;99010.06;5112117;28;20059;-72
2022/01/22 09:34:34;;;;;;;0.00;0.00;;;;;;;2.12;42.98;99017.47;5112733;27;20066;-71
2022/01/22 09:37:00;;;;;;;1.17;0.47;;;;;;;2.24;42.45;99028.09;5111828;28;20020;-71
2022/01/22 09:39:25;;;;;;;0.00;0.00;;;;;;;2.33;42.24;99020.66;5130389;27;20027;-71
2022/01/22 09:41:51;;;;;;;0.00;0.00;;;;;;;2.23;42.59;98994.81;5132343;27;20102;-74
2022/01/22 09:44:17;;;;;;;0.20;0.20;;;;;;;2.27;42.32;99003.09;5132084;27;20026;-73
2022/01/22 09:46:45;;;;;;;0.30;0.30;;;;;;;2.38;41.80;99024.25;5130637;27;20035;-71
2022/01/22 09:49:12;;;;;;;0.30;0.30;;;;;;;2.33;42.27;99000.38;5132160;27;20030;-73
2022/01/22 09:51:38;;;;;;;0.00;0.00;;;;;;;2.27;42.34;98987.25;5131887;27;20168;-73
2022/01/22 09:54:06;;;;;;;0.00;0.00;;;;;;;2.45;42.57;98997.75;5132142;27;20051;-74
2022/01/22 09:56:32;;;;;;;0.00;0.00;;;;;;;2.51;43.14;98993.44;5131839;27;20118;-74
2022/01/22 09:58:59;;;;;;;0.00;0.00;;;;;;;2.53;43.27;98978.97;5130693;28;20172;-73
2022/01/22 10:01:35;;;;;;;0.00;0.00;;;;;;;2.61;42.65;98975.19;5131675;27;20026;-74
2022/01/22 10:04:03;;;;;;;0.00;0.00;;;;;;;2.50;42.64;98962.78;5131922;27;20020;-73
2022/01/22 10:06:31;;;;;;;0.20;0.20;;;;;;;2.52;42.81;98955.44;5131877;27;20023;-72
2022/01/22 10:09:15;;;;;;;0.65;0.65;;;;;;;2.63;42.84;98972.34;5131557;27;20030;-71
2022/01/22 10:11:41;;;;;;;0.00;0.00;;;;;;;2.58;41.75;98975.66;5120733;27;20035;-69
2022/01/22 10:14:08;;;;;;;0.38;0.38;;;;;;;2.58;41.88;98962.47;5109982;28;20035;-71
2022/01/22 10:16:36;;;;;;;0.00;0.00;;;;;;;2.64;41.79;98972.13;5109811;28;20059;-70
2022/01/22 10:19:21;;;;;;;3.65;0.63;;;;;;;2.63;42.11;98961.78;5110464;28;20036;-74
2022/01/22 10:21:54;;;;;;;0.00;0.00;;;;;;;2.64;41.70;98961.56;5109467;28;20036;-72
2022/01/22 10:24:33;;;;;;;0.00;0.00;;;;;;;2.66;41.61;98964.78;5105282;27;20050;-71
2022/01/22 10:27:33;;;;;;;0.00;0.00;;;;;;;2.76;42.15;98964.25;5089488;28;20395;-72
2022/01/22 10:30:11;;;;;;;2.03;0.75;;;;;;;2.84;41.50;98958.59;5090805;28;20036;-72
2022/01/22 10:35:18;;;;;;;0.15;0.15;;;;;;;2.79;40.62;98950.56;5090726;28;20434;-72
2022/01/22 10:37:44;;;;;;;0.00;0.00;;;;;;;2.75;41.10;98932.75;5091880;28;20028;-72
2022/01/22 10:40:28;;;;;;;0.00;0.00;;;;;;;2.80;41.15;98938.97;5094397;28;20031;-72
2022/01/22 10:43:30;;;;;;;0.00;0.00;;;;;;;2.93;40.09;98953.00;5094492;28;20024;-71
2022/01/22 10:48:54;;;;;;;0.00;0.00;;;;;;;2.98;39.02;98942.53;5094077;28;20053;-71
2022/01/22 10:51:20;;;;;;;0.28;0.28;;;;;;;2.92;38.81;98928.44;5094431;28;20031;-71
2022/01/22 10:53:48;;;;;;;0.00;0.00;;;;;;;2.95;38.24;98927.97;5092707;28;20419;-71
2022/01/22 10:56:17;;;;;;;0.10;0.10;;;;;;;2.93;38.56;98916.84;5094217;28;20036;-71
2022/01/22 10:58:58;;;;;;;0.00;0.00;;;;;;;2.99;39.04;98931.78;5092752;28;20028;-71
2022/01/22 11:01:27;;;;;;;0.00;0.00;;;;;;;3.00;38.25;98925.47;5092827;28;20035;-71
2022/01/22 11:04:02;;;;;;;0.45;0.45;;;;;;;3.07;38.83;98903.41;5093870;28;20031;-71
2022/01/22 11:06:28;;;;;;;0.00;0.00;;;;;;;3.09;39.27;98896.03;5094179;28;20079;-71
2022/01/22 11:08:54;;;;;;;0.00;0.00;;;;;;;3.13;37.35;98897.97;5093868;28;20035;-70
2022/01/22 11:11:21;;;;;;;0.00;0.00;;;;;;;3.06;36.95;98884.09;5094096;28;20081;-71
2022/01/22 11:13:47;;;;;;;0.00;0.00;;;;;;;3.13;37.82;98882.13;5093768;28;20483;-72
2022/01/22 11:16:14;;;;;;;0.00;0.00;;;;;;;3.13;37.09;98873.41;5093961;28;20070;-71
2022/01/22 11:18:43;;;;;;;0.00;0.00;;;;;;;3.20;37.96;98901.31;5093739;28;20107;-72
2022/01/22 11:21:08;;;;;;;0.00;0.00;;;;;;;3.19;38.17;98888.34;5093579;28;20062;-71
2022/01/22 11:23:35;;;;;;;0.00;0.00;;;;;;;3.28;37.33;98894.88;5092201;28;20051;-71
2022/01/22 11:26:02;;;;;;;0.00;0.00;;;;;;;3.31;37.73;98910.28;5093765;28;20039;-72
2022/01/22 11:28:28;;;;;;;0.00;0.00;;;;;;;3.32;38.06;98901.31;5093735;28;20150;-72
2022/01/22 11:30:55;;;;;;;0.00;0.00;;;;;;;3.38;37.08;98886.34;5093441;28;20020;-71
2022/01/22 11:33:24;;;;;;;0.00;0.00;;;;;;;3.28;37.70;98878.22;5093893;28;20043;-71
2022/01/22 11:36:21;;;;;;;0.35;0.35;;;;;;;3.38;36.28;98896.13;5093355;28;20035;-71
2022/01/22 11:38:53;;;;;;;0.00;0.00;;;;;;;3.38;36.66;98881.06;5065852;28;20034;-71
2022/01/22 11:41:21;;;;;;;0.00;0.00;;;;;;;3.41;36.43;98879.81;5093489;28;20027;-72
2022/01/22 11:46:40;;;;;;;0.00;0.00;;;;;;;3.43;35.82;98873.25;5093187;28;20020;-71
2022/01/22 11:49:17;;;;;;;0.00;0.00;;;;;;;3.46;35.10;98871.97;5092645;28;20395;-71
2022/01/22 11:51:48;;;;;;;0.50;0.50;;;;;;;3.46;35.74;98871.97;5093131;28;20517;-71
2022/01/22 11:54:15;;;;;;;0.00;0.00;;;;;;;3.44;36.41;98882.81;5092803;28;20051;-72
2022/01/22 11:56:52;;;;;;;0.00;0.00;;;;;;;3.46;37.24;98856.13;5093021;28;20032;-71
2022/01/22 11:59:29;;;;;;;0.00;0.00;;;;;;;3.51;37.72;98861.50;5092965;28;20117;-71
2022/01/22 12:02:02;;;;;;;0.00;0.00;;;;;;;3.42;38.32;98870.81;5092835;28;20053;-71
2022/01/22 12:04:29;;;;;;;0.00;0.00;;;;;;;3.45;40.18;98879.09;5092806;28;20024;-71
2022/01/22 12:07:01;;;;;;;0.00;0.00;;;;;;;3.38;40.38;98877.63;5092828;28;20027;-71
2022/01/22 12:09:31;;;;;;;0.00;0.00;;;;;;;3.31;40.19;98880.41;5093006;28;20020;-71
2022/01/22 12:14:50;;;;;;;0.00;0.00;;;;;;;3.38;40.26;98880.25;5090703;28;20043;-71
2022/01/22 12:17:36;;;;;;;0.00;0.00;;;;;;;3.30;39.81;98879.59;5092124;28;20042;-71
2022/01/22 12:22:33;;;;;;;0.00;0.00;;;;;;;3.11;38.86;98876.25;5091989;28;20036;-71
2022/01/22 12:25:02;;;;;;;0.00;0.00;;;;;;;3.10;38.54;98866.75;5092274;28;20031;-71
2022/01/22 12:27:49;;;;;;;0.00;0.00;;;;;;;3.02;39.10;98869.75;5091704;28;20028;-71
2022/01/22 12:30:16;;;;;;;0.00;0.00;;;;;;;2.94;39.23;98854.22;5091737;28;20032;-72
2022/01/22 12:32:47;;;;;;;0.00;0.00;;;;;;;3.00;38.48;98866.50;5091302;28;20142;-72
2022/01/22 12:35:34;;;;;;;0.00;0.00;;;;;;;2.95;38.64;98879.63;5091835;28;20107;-72
2022/01/22 12:40:58;;;;;;;0.00;0.00;;;;;;;2.92;39.10;98851.81;5091441;28;20766;-71
2022/01/22 12:43:32;;;;;;;0.00;0.00;;;;;;;3.11;38.57;98864.91;5091499;28;20024;-71
2022/01/22 12:46:03;;;;;;;0.00;0.00;;;;;;;3.15;37.75;98858.94;5091334;28;20035;-71
2022/01/22 12:48:38;;;;;;;0.00;0.00;;;;;;;3.08;37.36;98857.47;5090288;28;20035;-71
2022/01/22 12:51:06;;;;;;;1.80;1.15;;;;;;;3.17;37.81;98866.63;5091426;28;20024;-71
2022/01/22 12:53:36;;;;;;;0.00;0.00;;;;;;;3.27;37.88;98866.03;5091515;28;20574;-71
2022/01/22 12:56:34;;;;;;;0.00;0.00;;;;;;;3.22;37.43;98848.22;5091281;28;20043;-71
2022/01/22 12:58:48;;;;;;;0.22;0.22;;;;;;;3.24;37.20;98848.81;5090691;28;20036;-72
2022/01/22 13:01:18;;;;;;;0.00;0.00;;;;;;;3.28;37.43;98849.94;5090818;28;20103;-71
2022/01/22 13:03:47;;;;;;;0.00;0.00;;;;;;;3.29;37.43;98850.75;5090046;28;20020;-71
2022/01/22 13:06:13;;;;;;;1.45;1.35;;;;;;;3.32;37.47;98863.50;5091831;28;20032;-72
2022/01/22 13:08:40;;;;;;;0.00;0.00;;;;;;;3.23;36.64;98839.25;5091585;28;20162;-72
2022/01/22 13:11:08;;;;;;;0.00;0.00;;;;;;;3.22;36.49;98844.78;5092059;28;20535;-72
2022/01/22 13:13:39;;;;;;;0.85;0.85;;;;;;;3.22;36.02;98842.94;5091810;28;20034;-72
2022/01/22 13:16:04;;;;;;;0.00;0.00;;;;;;;3.33;37.03;98862.47;5091986;28;20047;-72
2022/01/22 13:18:44;;;;;;;2.30;2.10;;;;;;;3.32;36.80;98859.03;5090322;28;20028;-72
2022/01/22 13:21:12;;;;;;;0.15;0.15;;;;;;;3.27;35.13;98850.16;5090305;28;20389;-72
2022/01/22 13:23:38;;;;;;;0.00;0.00;;;;;;;3.14;35.39;98846.75;5090024;28;20028;-72
2022/01/22 13:26:04;;;;;;;0.00;0.00;;;;;;;3.16;36.10;98855.25;5090122;28;20104;-72
2022/01/22 13:28:35;;;;;;;2.42;1.65;;;;;;;3.19;36.28;98856.63;5091498;28;20024;-72
2022/01/22 13:31:09;;;;;;;2.75;0.90;;;;;;;3.24;36.77;98869.16;5090780;28;20506;-72
2022/01/22 13:36:28;;;;;;;0.00;0.00;;;;;;;3.15;36.21;98852.81;5091385;28;20028;-71